createdAt,value
2024-03-31T00:01:06.750Z,90.64
2024-03-31T00:03:34.158Z,91.09
2024-03-31T00:06:00.810Z,91.07
2024-03-31T00:08:27.422Z,91.08
2024-03-31T00:11:01.574Z,91.13
2024-03-31T00:13:31.021Z,91.23
2024-03-31T00:15:57.726Z,90.88
2024-03-31T00:18:24.419Z,90.36
2024-03-31T00:20:59.938Z,90.38
2024-03-31T00:23:26.625Z,90.38
2024-03-31T00:26:00.051Z,90.86
2024-03-31T00:28:27.495Z,91.05
2024-03-31T00:30:57.736Z,90.36
2024-03-31T00:33:25.699Z,89.98
2024-03-31T00:35:57.831Z,90.35
2024-03-31T00:38:25.723Z,89.67
2024-03-31T00:40:52.800Z,89.85
2024-03-31T00:43:19.861Z,90.18
2024-03-31T00:45:46.644Z,90.50
2024-03-31T00:48:13.389Z,90.93
2024-03-31T00:50:40.118Z,90.96
2024-03-31T00:53:06.860Z,91.54
2024-03-31T00:55:33.898Z,91.73
2024-03-31T00:58:00.901Z,91.49
2024-03-31T01:00:28.137Z,91.75
2024-03-31T01:02:55.020Z,92.40
2024-03-31T01:05:21.678Z,92.43
2024-03-31T01:07:48.436Z,92.52
2024-03-31T01:10:15.329Z,91.89
2024-03-31T01:12:42.120Z,92.13
2024-03-31T01:15:08.944Z,92.35
2024-03-31T01:17:35.785Z,92.38
2024-03-31T01:20:02.670Z,92.52
2024-03-31T01:22:30.050Z,92.51
2024-03-31T01:24:56.699Z,92.80
2024-03-31T01:27:23.347Z,92.45
2024-03-31T01:29:49.953Z,92.63
2024-03-31T01:32:16.713Z,92.63
2024-03-31T01:34:45.620Z,92.50
2024-03-31T01:37:12.294Z,92.54
2024-03-31T01:39:39.015Z,92.47
2024-03-31T01:42:05.938Z,92.14
2024-03-31T01:44:32.593Z,92.73
2024-03-31T01:46:59.238Z,92.83
2024-03-31T01:49:25.962Z,92.56
2024-03-31T01:51:52.603Z,92.87
2024-03-31T01:54:19.197Z,92.77
2024-03-31T01:56:46.544Z,93.07
2024-03-31T01:59:13.141Z,92.98
2024-03-31T02:01:39.791Z,92.75
2024-03-31T02:04:06.467Z,92.74
2024-03-31T02:06:33.117Z,92.71
2024-03-31T02:08:59.738Z,92.69
2024-03-31T02:11:26.384Z,92.69
2024-03-31T02:13:53.065Z,92.20
2024-03-31T02:16:22.015Z,91.98
2024-03-31T02:18:48.676Z,91.50
2024-03-31T02:21:15.371Z,91.87
2024-03-31T02:23:42.023Z,91.99
2024-03-31T02:26:08.673Z,91.65
2024-03-31T02:28:36.592Z,91.42
2024-03-31T02:31:03.925Z,91.26
2024-03-31T02:33:30.546Z,91.13
2024-03-31T02:35:57.222Z,91.25
2024-03-31T02:38:23.871Z,90.99
2024-03-31T02:40:50.501Z,91.22
2024-03-31T02:43:17.124Z,91.62
2024-03-31T02:45:43.829Z,91.61
2024-03-31T02:48:10.467Z,91.41
2024-03-31T02:50:37.190Z,91.47
2024-03-31T02:53:03.942Z,91.59
2024-03-31T02:55:30.575Z,91.82
2024-03-31T02:57:57.192Z,91.75
2024-03-31T03:00:23.908Z,91.80
2024-03-31T03:02:50.797Z,91.77
2024-03-31T03:05:17.502Z,91.33
2024-03-31T03:07:44.133Z,91.19
2024-03-31T03:10:10.802Z,91.34
2024-03-31T03:12:37.546Z,91.12
2024-03-31T03:15:04.605Z,91.12
2024-03-31T03:17:31.236Z,91.33
2024-03-31T03:19:58.092Z,91.25
2024-03-31T03:22:24.924Z,91.18
2024-03-31T03:24:55.267Z,91.58
2024-03-31T03:27:21.984Z,91.27
2024-03-31T03:29:48.672Z,91.11
2024-03-31T03:32:15.342Z,91.13
2024-03-31T03:34:41.940Z,91.15
2024-03-31T03:37:08.558Z,91.33
2024-03-31T03:39:36.453Z,91.33
2024-03-31T03:42:06.679Z,90.94
2024-03-31T03:44:33.292Z,91.11
2024-03-31T03:46:59.944Z,91.15
2024-03-31T03:49:26.605Z,90.96
2024-03-31T03:51:53.312Z,91.13
2024-03-31T03:54:19.912Z,91.01
2024-03-31T03:56:46.606Z,90.92
2024-03-31T03:59:13.774Z,91.21
2024-03-31T04:01:40.845Z,91.01
2024-03-31T04:04:07.483Z,90.78
2024-03-31T04:06:34.100Z,91.11
2024-03-31T04:09:00.708Z,90.86
2024-03-31T04:11:27.352Z,91.11
2024-03-31T04:13:53.976Z,90.89
2024-03-31T04:16:20.631Z,90.87
2024-03-31T04:18:47.233Z,90.92
2024-03-31T04:21:13.903Z,91.30
2024-03-31T04:23:41.191Z,91.20
2024-03-31T04:26:07.819Z,91.10
2024-03-31T04:28:34.413Z,91.34
2024-03-31T04:31:04.462Z,91.13
2024-03-31T04:33:34.070Z,91.36
2024-03-31T04:36:01.490Z,91.33
2024-03-31T04:38:28.111Z,91.46
2024-03-31T04:40:56.966Z,91.27
2024-03-31T04:43:24.289Z,91.40
2024-03-31T04:46:08.886Z,91.06
2024-03-31T04:48:36.732Z,91.43
2024-03-31T04:51:07.651Z,91.69
2024-03-31T04:53:35.630Z,91.54
2024-03-31T04:56:03.117Z,91.23
2024-03-31T04:58:30.441Z,91.55
2024-03-31T05:00:57.524Z,91.43
2024-03-31T05:03:25.060Z,91.46
2024-03-31T05:05:52.168Z,91.71
2024-03-31T05:08:18.828Z,91.90
2024-03-31T05:10:55.614Z,91.19
2024-03-31T05:13:24.065Z,91.50
2024-03-31T05:16:03.140Z,91.50
2024-03-31T05:18:30.024Z,91.69
2024-03-31T05:21:06.032Z,91.72
2024-03-31T05:23:33.218Z,91.74
2024-03-31T05:26:00.959Z,91.88
2024-03-31T05:28:28.802Z,91.78
2024-03-31T05:30:55.876Z,91.66
2024-03-31T05:33:22.659Z,91.77
2024-03-31T05:35:49.566Z,91.31
2024-03-31T05:38:17.360Z,91.71
2024-03-31T05:40:45.737Z,91.58
2024-03-31T05:43:13.049Z,91.86
2024-03-31T05:45:41.370Z,91.38
2024-03-31T05:48:09.723Z,91.38
2024-03-31T05:50:36.499Z,91.43
2024-03-31T05:53:03.806Z,91.44
2024-03-31T05:55:30.498Z,90.96
2024-03-31T05:57:57.529Z,91.21
2024-03-31T06:00:25.267Z,91.23
2024-03-31T06:02:52.236Z,90.97
2024-03-31T06:05:19.151Z,91.11
2024-03-31T06:07:50.413Z,90.86
2024-03-31T06:10:17.874Z,90.85
2024-03-31T06:12:44.546Z,91.03
2024-03-31T06:15:11.457Z,91.26
2024-03-31T06:17:40.688Z,91.04
2024-03-31T06:20:08.690Z,91.54
2024-03-31T06:22:42.058Z,91.41
2024-03-31T06:25:09.228Z,91.44
2024-03-31T06:27:36.101Z,91.64
2024-03-31T06:30:04.110Z,91.61
2024-03-31T06:32:30.752Z,91.75
2024-03-31T06:34:57.617Z,92.19
2024-03-31T06:37:24.541Z,92.41
2024-03-31T06:39:51.151Z,92.42
2024-03-31T06:42:18.442Z,92.56
2024-03-31T06:44:45.259Z,92.64
2024-03-31T06:47:12.203Z,92.88
2024-03-31T06:49:39.497Z,93.38
2024-03-31T06:52:06.317Z,92.82
2024-03-31T06:54:33.008Z,93.49
2024-03-31T06:56:59.623Z,93.51
2024-03-31T06:59:26.323Z,93.53
2024-03-31T07:01:52.938Z,93.32
2024-03-31T07:04:19.585Z,93.69
2024-03-31T07:06:47.010Z,93.57
2024-03-31T07:09:13.642Z,93.39
2024-03-31T07:11:40.368Z,94.05
2024-03-31T07:14:07.034Z,93.32
2024-03-31T07:16:33.698Z,93.37
2024-03-31T07:19:00.484Z,93.56
2024-03-31T07:21:27.207Z,93.91
2024-03-31T07:23:53.942Z,93.90
2024-03-31T07:26:20.640Z,94.01
2024-03-31T07:28:47.278Z,93.82
2024-03-31T07:31:13.906Z,93.93
2024-03-31T07:33:40.521Z,94.05
2024-03-31T07:36:07.231Z,93.66
2024-03-31T07:38:33.927Z,93.25
2024-03-31T07:41:00.563Z,93.05
2024-03-31T07:43:28.459Z,93.42
2024-03-31T07:45:55.134Z,93.01
2024-03-31T07:48:21.761Z,92.58
2024-03-31T07:50:48.411Z,92.33
2024-03-31T07:53:15.053Z,92.57
2024-03-31T07:55:41.899Z,93.03
2024-03-31T07:58:08.550Z,92.63
2024-03-31T08:00:35.325Z,92.96
2024-03-31T08:03:01.983Z,92.31
2024-03-31T08:05:28.760Z,92.79
2024-03-31T08:07:56.061Z,93.18
2024-03-31T08:10:22.674Z,92.63
2024-03-31T08:12:49.383Z,92.88
2024-03-31T08:15:16.089Z,92.84
2024-03-31T08:17:42.691Z,92.76
2024-03-31T08:20:09.820Z,93.05
2024-03-31T08:22:36.423Z,93.10
2024-03-31T08:25:03.265Z,92.65
2024-03-31T08:27:29.940Z,92.57
2024-03-31T08:29:56.612Z,92.76
2024-03-31T08:32:23.334Z,92.47
2024-03-31T08:34:51.437Z,91.69
2024-03-31T08:37:18.131Z,90.78
2024-03-31T08:39:45.678Z,91.21
2024-03-31T08:42:38.121Z,91.29
2024-03-31T08:45:06.535Z,91.06
2024-03-31T08:47:35.585Z,91.16
2024-03-31T08:50:02.314Z,91.02
2024-03-31T08:52:29.539Z,89.81
2024-03-31T08:54:57.881Z,90.19
2024-03-31T08:57:24.825Z,90.50
2024-03-31T08:59:51.526Z,90.03
2024-03-31T09:02:23.631Z,89.81
2024-03-31T09:04:51.288Z,88.82
2024-03-31T09:07:18.058Z,89.23
2024-03-31T09:09:44.781Z,88.36
2024-03-31T09:12:12.392Z,88.16
2024-03-31T09:14:40.089Z,87.73
2024-03-31T09:17:11.003Z,86.84
2024-03-31T09:19:38.755Z,86.69
2024-03-31T09:22:05.747Z,85.83
2024-03-31T09:24:33.638Z,86.12
2024-03-31T09:27:01.438Z,85.53
2024-03-31T09:29:28.895Z,86.59
2024-03-31T09:32:16.036Z,86.57
2024-03-31T09:34:43.917Z,85.99
2024-03-31T09:37:11.828Z,85.19
2024-03-31T09:39:39.368Z,86.44
2024-03-31T09:42:07.747Z,85.48
2024-03-31T09:44:37.757Z,86.23
2024-03-31T09:47:16.145Z,85.45
2024-03-31T09:50:00.243Z,85.63
2024-03-31T09:52:32.356Z,83.49
2024-03-31T09:55:08.106Z,81.03
2024-03-31T09:57:42.282Z,81.69
2024-03-31T10:00:14.623Z,80.60
2024-03-31T10:02:47.476Z,82.12
2024-03-31T10:05:21.159Z,80.37
2024-03-31T10:07:48.710Z,77.90
2024-03-31T10:10:16.648Z,76.17
2024-03-31T10:12:45.395Z,74.45
2024-03-31T10:15:16.375Z,70.70
2024-03-31T10:17:46.123Z,71.19
2024-03-31T10:20:15.429Z,70.41
2024-03-31T10:22:44.312Z,69.73
2024-03-31T10:25:11.657Z,70.61
2024-03-31T10:27:42.322Z,69.05
2024-03-31T10:30:10.244Z,67.84
2024-03-31T10:32:38.074Z,68.84
2024-03-31T10:35:06.211Z,69.23
2024-03-31T10:37:33.943Z,66.19
2024-03-31T10:40:04.207Z,66.52
2024-03-31T10:42:32.092Z,64.68
2024-03-31T10:44:58.750Z,65.27
2024-03-31T10:47:25.681Z,67.62
2024-03-31T10:50:04.057Z,65.77
2024-03-31T10:52:33.682Z,65.34
2024-03-31T10:55:01.143Z,64.66
2024-03-31T10:57:41.764Z,64.41
2024-03-31T11:00:10.517Z,64.25
2024-03-31T11:02:40.855Z,62.38
2024-03-31T11:05:09.174Z,64.40
2024-03-31T11:07:37.115Z,62.51
2024-03-31T11:10:07.081Z,64.32
2024-03-31T11:12:33.854Z,65.00
2024-03-31T11:15:01.011Z,62.20
2024-03-31T11:17:28.354Z,63.91
2024-03-31T11:19:58.928Z,62.97
2024-03-31T11:22:26.965Z,63.69
2024-03-31T11:24:53.762Z,66.01
2024-03-31T11:27:21.016Z,62.62
2024-03-31T11:29:48.005Z,60.83
2024-03-31T11:32:18.139Z,58.34
2024-03-31T11:34:48.136Z,60.38
2024-03-31T11:37:15.603Z,59.80
2024-03-31T11:39:42.342Z,56.75
2024-03-31T11:42:10.013Z,56.26
2024-03-31T11:44:37.775Z,55.13
2024-03-31T11:47:05.310Z,56.61
2024-03-31T11:49:35.186Z,55.76
2024-03-31T11:52:02.601Z,54.25
2024-03-31T11:54:29.940Z,52.85
2024-03-31T11:56:57.015Z,53.64
2024-03-31T11:59:23.968Z,54.37
2024-03-31T12:02:02.007Z,55.46
2024-03-31T12:04:30.156Z,55.07
2024-03-31T12:06:56.893Z,52.56
2024-03-31T12:09:24.728Z,53.94
2024-03-31T12:11:51.877Z,53.20
2024-03-31T12:14:19.434Z,54.85
2024-03-31T12:16:46.521Z,53.10
2024-03-31T12:19:14.451Z,52.95
2024-03-31T12:21:41.845Z,53.00
2024-03-31T12:24:10.372Z,54.79
2024-03-31T12:26:37.692Z,54.70
2024-03-31T12:29:05.191Z,55.79
2024-03-31T12:31:32.197Z,55.90
2024-03-31T12:33:58.916Z,57.40
2024-03-31T12:36:26.985Z,58.12
2024-03-31T12:38:53.777Z,59.44
2024-03-31T12:41:22.372Z,60.44
2024-03-31T12:43:50.351Z,60.27
2024-03-31T12:46:17.300Z,60.56
2024-03-31T12:48:47.194Z,60.59
2024-03-31T12:51:24.180Z,60.78
2024-03-31T12:53:51.493Z,60.72
2024-03-31T12:56:19.074Z,60.52
2024-03-31T12:58:48.599Z,61.07
2024-03-31T13:01:22.231Z,61.19
2024-03-31T13:03:49.448Z,60.23
2024-03-31T13:06:16.364Z,61.41
2024-03-31T13:08:47.441Z,61.21
2024-03-31T13:11:15.748Z,62.60
2024-03-31T13:13:42.565Z,63.26
2024-03-31T13:16:09.710Z,63.09
2024-03-31T13:18:36.536Z,63.89
2024-03-31T13:21:03.609Z,63.48
2024-03-31T13:23:30.529Z,64.60
2024-03-31T13:25:57.194Z,68.91
2024-03-31T13:28:29.742Z,70.62
2024-03-31T13:30:57.888Z,71.79
2024-03-31T13:33:24.631Z,74.40
2024-03-31T13:35:51.250Z,76.80
2024-03-31T13:38:17.933Z,76.06
2024-03-31T13:40:44.869Z,75.96
2024-03-31T13:43:11.651Z,75.73
2024-03-31T13:45:38.300Z,76.73
2024-03-31T13:48:05.186Z,74.32
2024-03-31T13:50:31.849Z,72.47
2024-03-31T13:52:58.469Z,72.39
2024-03-31T13:55:25.193Z,74.39
2024-03-31T13:57:52.798Z,75.04
2024-03-31T14:00:19.543Z,71.81
2024-03-31T14:02:46.137Z,72.56
2024-03-31T14:05:12.761Z,72.40
2024-03-31T14:07:39.456Z,71.43
2024-03-31T14:10:09.129Z,70.41
2024-03-31T14:12:36.937Z,71.78
2024-03-31T14:15:04.814Z,72.73
2024-03-31T14:17:33.742Z,71.43
2024-03-31T14:20:01.530Z,71.95
2024-03-31T14:22:28.169Z,70.88
2024-03-31T14:24:54.808Z,70.76
2024-03-31T14:27:21.490Z,71.95
2024-03-31T14:29:48.099Z,71.77
2024-03-31T14:32:14.708Z,72.39
2024-03-31T14:34:41.365Z,69.90
2024-03-31T14:37:08.008Z,69.72
2024-03-31T14:39:34.677Z,69.64
2024-03-31T14:42:01.284Z,68.42
2024-03-31T14:44:28.021Z,72.18
2024-03-31T14:46:54.655Z,75.80
2024-03-31T14:49:21.808Z,77.10
2024-03-31T14:51:48.453Z,75.91
2024-03-31T14:54:15.188Z,74.56
2024-03-31T14:56:41.803Z,76.57
2024-03-31T14:59:08.812Z,76.58
2024-03-31T15:01:35.448Z,76.65
2024-03-31T15:04:02.130Z,76.38
2024-03-31T15:06:28.794Z,78.92
2024-03-31T15:08:58.346Z,78.86
2024-03-31T15:11:25.234Z,79.08
2024-03-31T15:13:52.007Z,78.50
2024-03-31T15:16:18.618Z,77.88
2024-03-31T15:18:45.300Z,77.10
2024-03-31T15:21:11.924Z,74.58
2024-03-31T15:23:38.548Z,72.93
2024-03-31T15:26:05.204Z,70.40
2024-03-31T15:28:31.819Z,66.53
2024-03-31T15:30:58.528Z,66.79
2024-03-31T15:33:25.227Z,65.12
2024-03-31T15:35:51.852Z,64.10
2024-03-31T15:38:18.554Z,63.55
2024-03-31T15:40:45.293Z,63.61
2024-03-31T15:43:11.904Z,63.22
2024-03-31T15:45:41.419Z,63.81
2024-03-31T15:48:09.825Z,64.12
2024-03-31T15:50:36.474Z,66.02
2024-03-31T15:53:03.132Z,64.33
2024-03-31T15:55:29.734Z,65.10
2024-03-31T15:57:56.368Z,65.71
2024-03-31T16:00:22.983Z,66.55
2024-03-31T16:02:49.616Z,64.77
2024-03-31T16:05:16.313Z,65.10
2024-03-31T16:07:42.928Z,64.38
2024-03-31T16:10:09.941Z,64.60
2024-03-31T16:12:36.627Z,66.15
2024-03-31T16:15:03.388Z,65.06
2024-03-31T16:17:30.034Z,65.95
2024-03-31T16:19:56.664Z,66.01
2024-03-31T16:22:23.303Z,66.28
2024-03-31T16:24:49.990Z,69.95
2024-03-31T16:27:16.672Z,70.55
2024-03-31T16:29:43.329Z,73.23
2024-03-31T16:32:09.946Z,70.97
2024-03-31T16:34:36.648Z,71.21
2024-03-31T16:37:03.281Z,73.17
2024-03-31T16:39:29.975Z,74.51
2024-03-31T16:41:56.680Z,76.01
2024-03-31T16:44:23.289Z,77.49
2024-03-31T16:46:49.970Z,82.01
2024-03-31T16:49:16.596Z,84.00
2024-03-31T16:51:43.230Z,83.47
2024-03-31T16:54:09.877Z,85.65
2024-03-31T16:56:36.578Z,88.55
2024-03-31T16:59:06.036Z,88.52
2024-03-31T17:01:32.714Z,90.38
2024-03-31T17:03:59.508Z,91.88
2024-03-31T17:06:27.955Z,91.71
2024-03-31T17:08:55.184Z,92.88
2024-03-31T17:11:22.141Z,92.63
2024-03-31T17:13:48.880Z,93.22
2024-03-31T17:16:15.504Z,93.11
2024-03-31T17:18:42.106Z,94.38
2024-03-31T17:21:10.780Z,94.81
2024-03-31T17:23:37.385Z,94.44
2024-03-31T17:26:04.610Z,94.69
2024-03-31T17:28:31.299Z,94.94
2024-03-31T17:31:00.830Z,95.27
2024-03-31T17:33:27.483Z,95.00
2024-03-31T17:35:58.219Z,95.00
2024-03-31T17:38:26.783Z,94.62
2024-03-31T17:41:01.919Z,94.36
2024-03-31T17:43:28.940Z,94.61
2024-03-31T17:46:26.289Z,93.99
2024-03-31T17:48:53.182Z,94.91
2024-03-31T17:51:24.744Z,94.59
2024-03-31T17:53:52.195Z,94.66
2024-03-31T17:56:19.869Z,94.77
2024-03-31T17:58:51.741Z,94.55
2024-03-31T18:01:19.820Z,95.09
2024-03-31T18:03:47.423Z,95.25
2024-03-31T18:06:14.874Z,95.18
2024-03-31T18:08:41.630Z,95.43
2024-03-31T18:11:13.206Z,95.62
2024-03-31T18:13:40.345Z,95.42
2024-03-31T18:16:10.002Z,95.18
2024-03-31T18:18:40.511Z,95.40
2024-03-31T18:21:14.152Z,95.28
2024-03-31T18:23:42.559Z,95.29
2024-03-31T18:26:10.216Z,95.42
2024-03-31T18:28:39.976Z,95.56
2024-03-31T18:31:07.683Z,95.55
2024-03-31T18:33:38.913Z,95.52
2024-03-31T18:36:15.958Z,95.51
2024-03-31T18:38:46.403Z,95.83
2024-03-31T18:41:13.291Z,95.67
2024-03-31T18:43:42.641Z,96.02
2024-03-31T18:46:10.998Z,96.00
2024-03-31T18:48:38.740Z,96.15
2024-03-31T18:51:17.553Z,95.64
2024-03-31T18:53:47.373Z,95.86
2024-03-31T18:56:18.211Z,95.70
2024-03-31T18:58:46.864Z,96.03
2024-03-31T19:01:16.111Z,95.89
2024-03-31T19:03:47.537Z,95.94
2024-03-31T19:06:14.732Z,96.02
2024-03-31T19:08:41.609Z,95.79
2024-03-31T19:11:09.285Z,95.77
2024-03-31T19:13:37.168Z,95.97
2024-03-31T19:16:05.170Z,96.27
2024-03-31T19:18:34.943Z,96.33
2024-03-31T19:21:01.694Z,96.55
2024-03-31T19:23:31.883Z,96.46
2024-03-31T19:26:03.982Z,96.37
2024-03-31T19:28:31.626Z,96.47
2024-03-31T19:30:58.574Z,96.10
2024-03-31T19:33:25.451Z,96.31
2024-03-31T19:35:52.060Z,96.33
2024-03-31T19:38:18.957Z,96.43
2024-03-31T19:40:54.575Z,96.59
2024-03-31T19:43:21.233Z,96.25
2024-03-31T19:45:47.860Z,96.02
2024-03-31T19:48:14.530Z,96.26
2024-03-31T19:50:41.167Z,96.36
2024-03-31T19:53:07.774Z,96.79
2024-03-31T19:55:34.406Z,96.67
2024-03-31T19:58:01.029Z,96.84
2024-03-31T20:00:27.722Z,96.76
2024-03-31T20:02:55.314Z,96.47
2024-03-31T20:05:21.984Z,96.77
2024-03-31T20:07:52.477Z,96.29
2024-03-31T20:10:19.122Z,95.91
2024-03-31T20:12:45.791Z,96.22
2024-03-31T20:15:12.426Z,96.47
2024-03-31T20:17:39.055Z,96.64
2024-03-31T20:20:06.787Z,96.40
2024-03-31T20:22:33.439Z,96.68
2024-03-31T20:25:00.623Z,96.40
2024-03-31T20:27:27.406Z,96.30
2024-03-31T20:29:54.378Z,96.49
2024-03-31T20:32:21.021Z,96.53
2024-03-31T20:34:47.790Z,96.42
2024-03-31T20:37:14.773Z,96.21
2024-03-31T20:39:41.837Z,96.48
2024-03-31T20:42:11.038Z,96.16
2024-03-31T20:44:37.669Z,96.50
2024-03-31T20:47:04.569Z,96.23
2024-03-31T20:49:31.208Z,96.19
2024-03-31T20:51:57.837Z,96.42
2024-03-31T20:54:24.463Z,96.09
2024-03-31T20:56:51.093Z,96.23
2024-03-31T20:59:17.667Z,96.01
2024-03-31T21:01:44.312Z,95.93
2024-03-31T21:04:11.086Z,96.15
2024-03-31T21:06:37.714Z,95.74
2024-03-31T21:09:05.619Z,95.55
2024-03-31T21:11:32.858Z,95.54
2024-03-31T21:13:59.513Z,95.88
2024-03-31T21:16:27.434Z,96.20
2024-03-31T21:18:54.433Z,96.19
2024-03-31T21:21:26.205Z,96.39
2024-03-31T21:23:52.850Z,95.97
2024-03-31T21:26:20.416Z,95.77
2024-03-31T21:28:47.848Z,96.21
2024-03-31T21:31:18.315Z,96.18
2024-03-31T21:33:46.763Z,95.94
2024-03-31T21:36:23.794Z,95.94
2024-03-31T21:38:52.190Z,95.95
2024-03-31T21:41:20.327Z,95.53
2024-03-31T21:43:48.820Z,95.59
2024-03-31T21:46:16.674Z,95.63
2024-03-31T21:48:43.637Z,95.99
2024-03-31T21:51:12.285Z,96.22
2024-03-31T21:53:40.599Z,96.13
2024-03-31T21:56:10.806Z,95.71
2024-03-31T21:58:40.212Z,95.86
2024-03-31T22:01:11.841Z,95.49
2024-03-31T22:03:40.018Z,95.48
2024-03-31T22:06:17.803Z,95.54
2024-03-31T22:08:44.480Z,95.26
2024-03-31T22:11:11.754Z,95.27
2024-03-31T22:13:38.990Z,95.43
2024-03-31T22:16:05.935Z,95.63
2024-03-31T22:18:34.463Z,95.45
2024-03-31T22:21:03.477Z,95.42
2024-03-31T22:23:30.997Z,95.45
2024-03-31T22:25:58.168Z,95.24
2024-03-31T22:28:25.657Z,95.66
2024-03-31T22:30:52.299Z,95.53
2024-03-31T22:33:19.828Z,95.42
2024-03-31T22:35:46.727Z,95.50
2024-03-31T22:38:13.743Z,95.32
2024-03-31T22:40:40.380Z,95.29
2024-03-31T22:43:07.237Z,95.36
2024-03-31T22:45:33.885Z,95.20
2024-03-31T22:48:00.500Z,95.64
2024-03-31T22:50:27.271Z,95.31
2024-03-31T22:52:53.947Z,95.26
2024-03-31T22:55:21.554Z,94.54
2024-03-31T22:57:48.346Z,94.48
2024-03-31T23:00:15.168Z,94.63
2024-03-31T23:02:41.819Z,94.06
2024-03-31T23:05:08.490Z,94.07
2024-03-31T23:07:35.223Z,94.00
2024-03-31T23:10:08.512Z,93.86
2024-03-31T23:12:35.879Z,94.50
2024-03-31T23:15:02.853Z,94.60
2024-03-31T23:17:29.623Z,95.03
2024-03-31T23:19:56.725Z,94.68
2024-03-31T23:22:23.815Z,94.52
2024-03-31T23:24:50.440Z,94.57
2024-03-31T23:27:17.070Z,94.96
2024-03-31T23:29:43.826Z,95.07
2024-03-31T23:32:10.490Z,94.91
2024-03-31T23:34:37.114Z,94.83
2024-03-31T23:37:05.985Z,95.53
2024-03-31T23:39:32.784Z,95.80
2024-03-31T23:42:00.021Z,95.33
2024-03-31T23:44:26.735Z,95.17
2024-03-31T23:46:53.499Z,95.07
2024-03-31T23:49:20.159Z,95.54
2024-03-31T23:51:46.852Z,95.36
2024-03-31T23:54:13.532Z,95.46
2024-03-31T23:56:40.135Z,95.35
2024-03-31T23:59:06.764Z,95.67
